Vernon Springs, Iowa
Current Conditions -  °F | °C
As of 11:55 PM on Saturday 25 Oct 2014 (Local Time) from KFKA Reporting Station
Clear Clear  
Wind Chill: 36°   Ceiling: Unl
Heat Index: 41°   Visibility: 10mi
Dew Point: 30°   Wind: 8mph
Humidity: 65%   Direction: 310°NW
Pressure: 30.05"   Gusts: NA
Location:  43.363°N, 92.1685°W
Report Text: KFKA 260455Z AUTO 31007KT 10SM CLR 05/M01 A3005 RMK AO2 T00511011
Loading
Personal Weather Stations






























Interactive Weather Map
Tropical Storm Tracking
New forecast layout! Learn more

10-Day Weather Forecast

Advertisements
Track Severe Weather on mobile